Blende, Colorado
Current Conditions -  °F | °C
As of 7:53 PM on Saturday 25 Oct 2014 (Local Time) from KPUB Reporting Station
Clear Clear  
Wind Chill: 64°   Ceiling: Unl
Heat Index: 64°   Visibility: 10mi
Dew Point: 27°   Wind: 6mph
Humidity: 25%   Direction: 110°ESE
Pressure: 30.01"   Gusts: NA
Location:  38.2482°N, 104.47°W
Report Text: KPUB 260153Z 11005KT 10SM CLR 18/M03 A3001 RMK AO2 SLP129 T01781028
Loading
Personal Weather Stations






























Interactive Weather Map
Tropical Storm Tracking
New forecast layout! Learn more

10-Day Weather Forecast

Advertisements
Track Severe Weather on mobile